sensor_id;sensor_type;location;lat;lon;timestamp;temperature;humidity
26691;DHT22;14307;51.718;8.938;2023-04-28T00:02:16;7.90;99.90
26691;DHT22;14307;51.718;8.938;2023-04-28T00:04:43;7.90;99.90
26691;DHT22;14307;51.718;8.938;2023-04-28T00:07:11;7.90;99.90
26691;DHT22;14307;51.718;8.938;2023-04-28T00:09:38;8.00;99.90
26691;DHT22;14307;51.718;8.938;2023-04-28T00:12:04;8.00;99.90
26691;DHT22;14307;51.718;8.938;2023-04-28T00:14:32;7.90;99.90
26691;DHT22;14307;51.718;8.938;2023-04-28T00:16:58;8.00;99.90
26691;DHT22;14307;51.718;8.938;2023-04-28T00:19:25;7.90;99.90
26691;DHT22;14307;51.718;8.938;2023-04-28T00:21:52;7.90;99.90
26691;DHT22;14307;51.718;8.938;2023-04-28T00:24:19;7.80;99.90
26691;DHT22;14307;51.718;8.938;2023-04-28T00:26:45;7.90;99.90
26691;DHT22;14307;51.718;8.938;2023-04-28T00:29:12;7.90;99.90
26691;DHT22;14307;51.718;8.938;2023-04-28T00:31:39;7.90;99.90
26691;DHT22;14307;51.718;8.938;2023-04-28T00:34:06;7.90;99.90
26691;DHT22;14307;51.718;8.938;2023-04-28T00:36:32;7.80;99.90
26691;DHT22;14307;51.718;8.938;2023-04-28T00:38:59;7.80;99.90
26691;DHT22;14307;51.718;8.938;2023-04-28T00:41:26;7.80;99.90
26691;DHT22;14307;51.718;8.938;2023-04-28T00:43:53;7.80;99.90
26691;DHT22;14307;51.718;8.938;2023-04-28T00:46:23;7.80;99.90
26691;DHT22;14307;51.718;8.938;2023-04-28T00:48:50;7.80;99.90
26691;DHT22;14307;51.718;8.938;2023-04-28T00:51:17;7.70;99.90
26691;DHT22;14307;51.718;8.938;2023-04-28T00:53:44;7.70;99.90
26691;DHT22;14307;51.718;8.938;2023-04-28T00:56:11;7.70;99.90
26691;DHT22;14307;51.718;8.938;2023-04-28T00:58:38;7.70;99.90
26691;DHT22;14307;51.718;8.938;2023-04-28T01:01:06;7.70;99.90
26691;DHT22;14307;51.718;8.938;2023-04-28T01:03:35;7.70;99.90
26691;DHT22;14307;51.718;8.938;2023-04-28T01:06:04;7.70;99.90
26691;DHT22;14307;51.718;8.938;2023-04-28T01:08:34;7.70;99.90
26691;DHT22;14307;51.718;8.938;2023-04-28T01:11:02;7.60;99.90
26691;DHT22;14307;51.718;8.938;2023-04-28T01:13:55;7.70;99.90
26691;DHT22;14307;51.718;8.938;2023-04-28T01:16:25;7.60;99.90
26691;DHT22;14307;51.718;8.938;2023-04-28T01:18:54;7.60;99.90
26691;DHT22;14307;51.718;8.938;2023-04-28T01:21:29;7.60;99.90
26691;DHT22;14307;51.718;8.938;2023-04-28T01:24:01;7.60;99.90
26691;DHT22;14307;51.718;8.938;2023-04-28T01:26:28;7.60;99.90
26691;DHT22;14307;51.718;8.938;2023-04-28T01:28:54;7.60;99.90
26691;DHT22;14307;51.718;8.938;2023-04-28T01:31:21;7.60;99.90
26691;DHT22;14307;51.718;8.938;2023-04-28T01:33:48;7.60;99.90
26691;DHT22;14307;51.718;8.938;2023-04-28T01:36:15;7.60;99.90
26691;DHT22;14307;51.718;8.938;2023-04-28T01:38:42;7.60;99.90
26691;DHT22;14307;51.718;8.938;2023-04-28T01:41:11;7.60;99.90
26691;DHT22;14307;51.718;8.938;2023-04-28T01:43:38;7.60;99.90
26691;DHT22;14307;51.718;8.938;2023-04-28T01:46:05;7.60;99.90
26691;DHT22;14307;51.718;8.938;2023-04-28T01:48:32;7.60;99.90
26691;DHT22;14307;51.718;8.938;2023-04-28T01:50:59;7.60;99.90
26691;DHT22;14307;51.718;8.938;2023-04-28T01:53:25;7.60;99.90
26691;DHT22;14307;51.718;8.938;2023-04-28T01:55:52;7.70;99.90
26691;DHT22;14307;51.718;8.938;2023-04-28T01:58:20;7.60;99.90
26691;DHT22;14307;51.718;8.938;2023-04-28T02:00:46;7.60;99.90
26691;DHT22;14307;51.718;8.938;2023-04-28T02:03:14;7.70;99.90
26691;DHT22;14307;51.718;8.938;2023-04-28T02:05:41;7.70;99.90
26691;DHT22;14307;51.718;8.938;2023-04-28T02:08:08;7.60;99.90
26691;DHT22;14307;51.718;8.938;2023-04-28T02:10:35;7.60;99.90
26691;DHT22;14307;51.718;8.938;2023-04-28T02:13:01;7.60;99.90
26691;DHT22;14307;51.718;8.938;2023-04-28T02:15:28;7.60;99.90
26691;DHT22;14307;51.718;8.938;2023-04-28T02:17:56;7.70;99.90
26691;DHT22;14307;51.718;8.938;2023-04-28T02:20:22;7.60;99.90
26691;DHT22;14307;51.718;8.938;2023-04-28T02:22:49;7.60;99.90
26691;DHT22;14307;51.718;8.938;2023-04-28T02:25:16;7.60;99.90
26691;DHT22;14307;51.718;8.938;2023-04-28T02:27:43;7.60;99.90
26691;DHT22;14307;51.718;8.938;2023-04-28T02:30:10;7.60;99.90
26691;DHT22;14307;51.718;8.938;2023-04-28T02:32:37;7.60;99.90
26691;DHT22;14307;51.718;8.938;2023-04-28T02:35:05;7.60;99.90
26691;DHT22;14307;51.718;8.938;2023-04-28T02:37:32;7.70;99.90
26691;DHT22;14307;51.718;8.938;2023-04-28T02:39:59;7.60;99.90
26691;DHT22;14307;51.718;8.938;2023-04-28T02:42:25;7.60;99.90
26691;DHT22;14307;51.718;8.938;2023-04-28T02:44:54;7.70;99.90
26691;DHT22;14307;51.718;8.938;2023-04-28T02:47:21;7.70;99.90
26691;DHT22;14307;51.718;8.938;2023-04-28T02:49:48;7.60;99.90
26691;DHT22;14307;51.718;8.938;2023-04-28T02:52:15;7.70;99.90
26691;DHT22;14307;51.718;8.938;2023-04-28T02:54:42;7.60;99.90
26691;DHT22;14307;51.718;8.938;2023-04-28T02:57:09;7.60;99.90
26691;DHT22;14307;51.718;8.938;2023-04-28T02:59:36;7.60;99.90
26691;DHT22;14307;51.718;8.938;2023-04-28T03:02:02;7.50;99.90
26691;DHT22;14307;51.718;8.938;2023-04-28T03:04:30;7.60;99.90
26691;DHT22;14307;51.718;8.938;2023-04-28T03:06:57;7.50;99.90
26691;DHT22;14307;51.718;8.938;2023-04-28T03:09:24;7.60;99.90
26691;DHT22;14307;51.718;8.938;2023-04-28T03:11:51;7.60;99.90
26691;DHT22;14307;51.718;8.938;2023-04-28T03:14:18;7.60;99.90
26691;DHT22;14307;51.718;8.938;2023-04-28T03:16:45;7.60;99.90
26691;DHT22;14307;51.718;8.938;2023-04-28T03:19:13;7.60;99.90
26691;DHT22;14307;51.718;8.938;2023-04-28T03:21:40;7.60;99.90
26691;DHT22;14307;51.718;8.938;2023-04-28T03:24:07;7.50;99.90
26691;DHT22;14307;51.718;8.938;2023-04-28T03:26:34;7.50;99.90
26691;DHT22;14307;51.718;8.938;2023-04-28T03:29:02;7.50;99.90
26691;DHT22;14307;51.718;8.938;2023-04-28T03:31:29;7.50;99.90
26691;DHT22;14307;51.718;8.938;2023-04-28T03:33:56;7.60;99.90
26691;DHT22;14307;51.718;8.938;2023-04-28T03:36:25;7.60;99.90
26691;DHT22;14307;51.718;8.938;2023-04-28T03:38:55;7.70;99.90
26691;DHT22;14307;51.718;8.938;2023-04-28T03:41:22;7.70;99.90
26691;DHT22;14307;51.718;8.938;2023-04-28T03:44:08;7.60;99.90
26691;DHT22;14307;51.718;8.938;2023-04-28T03:46:44;7.60;99.90
26691;DHT22;14307;51.718;8.938;2023-04-28T03:49:11;7.60;99.90
26691;DHT22;14307;51.718;8.938;2023-04-28T03:51:38;7.70;99.90
26691;DHT22;14307;51.718;8.938;2023-04-28T03:54:05;7.70;99.90
26691;DHT22;14307;51.718;8.938;2023-04-28T03:56:33;7.70;99.90
26691;DHT22;14307;51.718;8.938;2023-04-28T03:59:01;7.60;99.90
26691;DHT22;14307;51.718;8.938;2023-04-28T04:01:28;7.60;99.90
26691;DHT22;14307;51.718;8.938;2023-04-28T04:03:55;7.60;99.90
26691;DHT22;14307;51.718;8.938;2023-04-28T04:06:22;7.60;99.90
26691;DHT22;14307;51.718;8.938;2023-04-28T04:08:50;7.60;99.90
26691;DHT22;14307;51.718;8.938;2023-04-28T04:11:16;7.60;99.90
26691;DHT22;14307;51.718;8.938;2023-04-28T04:13:43;7.60;99.90
26691;DHT22;14307;51.718;8.938;2023-04-28T04:16:13;7.50;99.90
26691;DHT22;14307;51.718;8.938;2023-04-28T04:18:43;7.50;99.90
26691;DHT22;14307;51.718;8.938;2023-04-28T04:21:22;7.50;99.90
26691;DHT22;14307;51.718;8.938;2023-04-28T04:23:50;7.60;99.90
26691;DHT22;14307;51.718;8.938;2023-04-28T04:26:17;7.60;99.90
26691;DHT22;14307;51.718;8.938;2023-04-28T04:28:45;7.50;99.90
26691;DHT22;14307;51.718;8.938;2023-04-28T04:31:12;7.60;99.90
26691;DHT22;14307;51.718;8.938;2023-04-28T04:33:39;7.60;99.90
26691;DHT22;14307;51.718;8.938;2023-04-28T04:36:06;7.60;99.90
26691;DHT22;14307;51.718;8.938;2023-04-28T04:38:33;7.70;99.90
26691;DHT22;14307;51.718;8.938;2023-04-28T04:41:09;7.60;99.90
26691;DHT22;14307;51.718;8.938;2023-04-28T04:43:36;7.70;99.90
26691;DHT22;14307;51.718;8.938;2023-04-28T04:46:03;7.70;99.90
26691;DHT22;14307;51.718;8.938;2023-04-28T04:48:31;7.70;99.90
26691;DHT22;14307;51.718;8.938;2023-04-28T04:50:57;7.70;99.90
26691;DHT22;14307;51.718;8.938;2023-04-28T04:53:25;7.60;99.90
26691;DHT22;14307;51.718;8.938;2023-04-28T04:55:54;7.50;99.90
26691;DHT22;14307;51.718;8.938;2023-04-28T04:58:21;7.50;99.90
26691;DHT22;14307;51.718;8.938;2023-04-28T05:01:06;7.60;99.90
26691;DHT22;14307;51.718;8.938;2023-04-28T05:03:33;7.60;99.90
26691;DHT22;14307;51.718;8.938;2023-04-28T05:06:00;7.50;99.90
26691;DHT22;14307;51.718;8.938;2023-04-28T05:08:35;7.50;99.90
26691;DHT22;14307;51.718;8.938;2023-04-28T05:11:02;7.30;99.90
26691;DHT22;14307;51.718;8.938;2023-04-28T05:13:29;7.30;99.90
26691;DHT22;14307;51.718;8.938;2023-04-28T05:16:00;7.30;99.90
26691;DHT22;14307;51.718;8.938;2023-04-28T05:18:38;7.40;99.90
26691;DHT22;14307;51.718;8.938;2023-04-28T05:21:05;7.40;99.90
26691;DHT22;14307;51.718;8.938;2023-04-28T05:23:32;7.40;99.90
26691;DHT22;14307;51.718;8.938;2023-04-28T05:25:59;7.40;99.90
26691;DHT22;14307;51.718;8.938;2023-04-28T05:28:25;7.40;99.90
26691;DHT22;14307;51.718;8.938;2023-04-28T05:30:54;7.40;99.90
26691;DHT22;14307;51.718;8.938;2023-04-28T05:33:21;7.30;99.90
26691;DHT22;14307;51.718;8.938;2023-04-28T05:35:49;7.30;99.90
26691;DHT22;14307;51.718;8.938;2023-04-28T05:38:16;7.30;99.90
26691;DHT22;14307;51.718;8.938;2023-04-28T05:40:44;7.20;99.90
26691;DHT22;14307;51.718;8.938;2023-04-28T05:43:11;7.20;99.90
26691;DHT22;14307;51.718;8.938;2023-04-28T05:45:38;7.30;99.90
26691;DHT22;14307;51.718;8.938;2023-04-28T05:48:05;7.30;99.90
26691;DHT22;14307;51.718;8.938;2023-04-28T05:50:32;7.30;99.90
26691;DHT22;14307;51.718;8.938;2023-04-28T05:53:00;7.30;99.90
26691;DHT22;14307;51.718;8.938;2023-04-28T05:55:28;7.40;99.90
26691;DHT22;14307;51.718;8.938;2023-04-28T05:57:55;7.40;99.90
26691;DHT22;14307;51.718;8.938;2023-04-28T06:00:22;7.40;99.90
26691;DHT22;14307;51.718;8.938;2023-04-28T06:02:52;7.50;99.90
26691;DHT22;14307;51.718;8.938;2023-04-28T06:05:20;7.60;99.90
26691;DHT22;14307;51.718;8.938;2023-04-28T06:07:49;7.60;99.90
26691;DHT22;14307;51.718;8.938;2023-04-28T06:10:18;7.60;99.90
26691;DHT22;14307;51.718;8.938;2023-04-28T06:12:44;7.80;99.90
26691;DHT22;14307;51.718;8.938;2023-04-28T06:15:11;7.80;99.90
26691;DHT22;14307;51.718;8.938;2023-04-28T06:17:38;7.80;99.90
26691;DHT22;14307;51.718;8.938;2023-04-28T06:20:06;7.90;99.90
26691;DHT22;14307;51.718;8.938;2023-04-28T06:22:33;8.00;99.90
26691;DHT22;14307;51.718;8.938;2023-04-28T06:24:59;8.10;99.90
26691;DHT22;14307;51.718;8.938;2023-04-28T06:27:33;8.00;99.90
26691;DHT22;14307;51.718;8.938;2023-04-28T06:29:59;7.90;99.90
26691;DHT22;14307;51.718;8.938;2023-04-28T06:32:26;8.00;99.90
26691;DHT22;14307;51.718;8.938;2023-04-28T06:34:53;8.00;99.90
26691;DHT22;14307;51.718;8.938;2023-04-28T06:37:22;8.10;99.90
26691;DHT22;14307;51.718;8.938;2023-04-28T06:39:48;8.30;99.90
26691;DHT22;14307;51.718;8.938;2023-04-28T06:42:15;8.30;99.90
26691;DHT22;14307;51.718;8.938;2023-04-28T06:44:51;8.50;99.90
26691;DHT22;14307;51.718;8.938;2023-04-28T06:47:18;8.40;99.90
26691;DHT22;14307;51.718;8.938;2023-04-28T06:49:45;8.30;99.90
26691;DHT22;14307;51.718;8.938;2023-04-28T06:52:12;8.40;99.90
26691;DHT22;14307;51.718;8.938;2023-04-28T06:54:40;8.50;99.90
26691;DHT22;14307;51.718;8.938;2023-04-28T06:57:07;8.40;99.90
26691;DHT22;14307;51.718;8.938;2023-04-28T06:59:34;8.40;99.90
26691;DHT22;14307;51.718;8.938;2023-04-28T07:02:01;8.40;99.90
26691;DHT22;14307;51.718;8.938;2023-04-28T07:04:27;8.20;99.90
26691;DHT22;14307;51.718;8.938;2023-04-28T07:06:54;8.20;99.90
26691;DHT22;14307;51.718;8.938;2023-04-28T07:09:21;8.20;99.90
26691;DHT22;14307;51.718;8.938;2023-04-28T07:11:48;8.20;99.90
26691;DHT22;14307;51.718;8.938;2023-04-28T07:14:14;8.20;99.90
26691;DHT22;14307;51.718;8.938;2023-04-28T07:16:42;8.30;99.90
26691;DHT22;14307;51.718;8.938;2023-04-28T07:19:09;8.40;99.90
26691;DHT22;14307;51.718;8.938;2023-04-28T07:21:35;8.50;99.90
26691;DHT22;14307;51.718;8.938;2023-04-28T07:24:02;8.70;99.90
26691;DHT22;14307;51.718;8.938;2023-04-28T07:26:29;8.70;99.90
26691;DHT22;14307;51.718;8.938;2023-04-28T07:28:56;8.80;99.90
26691;DHT22;14307;51.718;8.938;2023-04-28T07:31:23;8.80;99.90
26691;DHT22;14307;51.718;8.938;2023-04-28T07:33:49;9.00;99.90
26691;DHT22;14307;51.718;8.938;2023-04-28T07:36:17;9.00;99.90
26691;DHT22;14307;51.718;8.938;2023-04-28T07:38:44;9.10;99.90
26691;DHT22;14307;51.718;8.938;2023-04-28T07:41:11;9.00;99.90
26691;DHT22;14307;51.718;8.938;2023-04-28T07:43:38;9.10;99.90
26691;DHT22;14307;51.718;8.938;2023-04-28T07:46:06;9.10;99.90
26691;DHT22;14307;51.718;8.938;2023-04-28T07:48:34;9.10;99.90
26691;DHT22;14307;51.718;8.938;2023-04-28T07:51:01;9.20;99.90
26691;DHT22;14307;51.718;8.938;2023-04-28T07:53:28;9.10;99.90
26691;DHT22;14307;51.718;8.938;2023-04-28T07:55:54;9.10;99.90
26691;DHT22;14307;51.718;8.938;2023-04-28T07:58:21;9.30;99.90
26691;DHT22;14307;51.718;8.938;2023-04-28T08:00:48;9.30;99.90
26691;DHT22;14307;51.718;8.938;2023-04-28T08:03:15;9.30;99.90
26691;DHT22;14307;51.718;8.938;2023-04-28T08:05:42;9.30;99.90
26691;DHT22;14307;51.718;8.938;2023-04-28T08:08:10;9.50;99.90
26691;DHT22;14307;51.718;8.938;2023-04-28T08:10:37;9.60;99.90
26691;DHT22;14307;51.718;8.938;2023-04-28T08:13:07;9.50;99.90
26691;DHT22;14307;51.718;8.938;2023-04-28T08:15:33;9.50;99.90
26691;DHT22;14307;51.718;8.938;2023-04-28T08:18:00;9.50;99.90
26691;DHT22;14307;51.718;8.938;2023-04-28T08:20:27;9.70;99.90
26691;DHT22;14307;51.718;8.938;2023-04-28T08:22:55;9.70;99.90
26691;DHT22;14307;51.718;8.938;2023-04-28T08:25:22;9.70;99.90
26691;DHT22;14307;51.718;8.938;2023-04-28T08:27:49;9.50;99.90
26691;DHT22;14307;51.718;8.938;2023-04-28T08:30:15;9.50;99.90
26691;DHT22;14307;51.718;8.938;2023-04-28T08:32:42;9.50;99.90
26691;DHT22;14307;51.718;8.938;2023-04-28T08:35:09;9.60;99.90
26691;DHT22;14307;51.718;8.938;2023-04-28T08:37:36;9.80;99.90
26691;DHT22;14307;51.718;8.938;2023-04-28T08:40:03;10.00;99.90
26691;DHT22;14307;51.718;8.938;2023-04-28T08:42:35;10.30;99.90
26691;DHT22;14307;51.718;8.938;2023-04-28T08:45:06;10.50;99.90
26691;DHT22;14307;51.718;8.938;2023-04-28T08:47:37;10.70;99.90
26691;DHT22;14307;51.718;8.938;2023-04-28T08:50:07;10.90;99.90
26691;DHT22;14307;51.718;8.938;2023-04-28T08:52:34;10.90;99.90
26691;DHT22;14307;51.718;8.938;2023-04-28T08:55:06;10.80;99.90
26691;DHT22;14307;51.718;8.938;2023-04-28T08:57:43;10.80;99.90
26691;DHT22;14307;51.718;8.938;2023-04-28T09:00:11;10.70;99.90
26691;DHT22;14307;51.718;8.938;2023-04-28T09:02:38;10.80;99.90
26691;DHT22;14307;51.718;8.938;2023-04-28T09:05:09;10.70;99.90
26691;DHT22;14307;51.718;8.938;2023-04-28T09:07:37;10.60;99.90
26691;DHT22;14307;51.718;8.938;2023-04-28T09:12:43;10.50;99.90
26691;DHT22;14307;51.718;8.938;2023-04-28T09:15:10;10.50;99.90
26691;DHT22;14307;51.718;8.938;2023-04-28T09:17:57;10.60;99.90
26691;DHT22;14307;51.718;8.938;2023-04-28T09:20:26;10.50;99.90
26691;DHT22;14307;51.718;8.938;2023-04-28T09:22:56;10.50;99.90
26691;DHT22;14307;51.718;8.938;2023-04-28T09:25:37;10.60;99.90
26691;DHT22;14307;51.718;8.938;2023-04-28T09:28:20;10.60;99.90
26691;DHT22;14307;51.718;8.938;2023-04-28T09:30:47;10.40;99.90
26691;DHT22;14307;51.718;8.938;2023-04-28T09:33:14;10.30;99.90
26691;DHT22;14307;51.718;8.938;2023-04-28T09:35:44;10.30;99.90
26691;DHT22;14307;51.718;8.938;2023-04-28T09:38:12;10.40;99.90
26691;DHT22;14307;51.718;8.938;2023-04-28T09:40:53;10.30;99.90
26691;DHT22;14307;51.718;8.938;2023-04-28T09:43:31;10.20;99.90
26691;DHT22;14307;51.718;8.938;2023-04-28T09:46:00;10.00;99.90
26691;DHT22;14307;51.718;8.938;2023-04-28T09:48:31;10.10;99.90
26691;DHT22;14307;51.718;8.938;2023-04-28T09:51:03;10.10;99.90
26691;DHT22;14307;51.718;8.938;2023-04-28T09:53:30;10.10;99.90
26691;DHT22;14307;51.718;8.938;2023-04-28T09:55:59;10.10;99.90
26691;DHT22;14307;51.718;8.938;2023-04-28T09:58:27;10.00;99.90
26691;DHT22;14307;51.718;8.938;2023-04-28T10:00:59;10.20;99.90
26691;DHT22;14307;51.718;8.938;2023-04-28T10:03:27;10.30;99.90
26691;DHT22;14307;51.718;8.938;2023-04-28T10:05:57;10.40;99.90
26691;DHT22;14307;51.718;8.938;2023-04-28T10:08:25;10.50;99.90
26691;DHT22;14307;51.718;8.938;2023-04-28T10:10:53;10.60;99.90
26691;DHT22;14307;51.718;8.938;2023-04-28T10:13:21;10.80;99.90
26691;DHT22;14307;51.718;8.938;2023-04-28T10:15:49;10.80;99.90
26691;DHT22;14307;51.718;8.938;2023-04-28T10:18:16;10.90;99.90
26691;DHT22;14307;51.718;8.938;2023-04-28T10:20:51;10.90;99.90
26691;DHT22;14307;51.718;8.938;2023-04-28T10:26:34;10.90;99.90
26691;DHT22;14307;51.718;8.938;2023-04-28T10:29:02;10.90;99.90
26691;DHT22;14307;51.718;8.938;2023-04-28T10:31:29;10.90;99.90
26691;DHT22;14307;51.718;8.938;2023-04-28T10:34:20;11.10;99.90
26691;DHT22;14307;51.718;8.938;2023-04-28T10:36:48;11.20;99.90
26691;DHT22;14307;51.718;8.938;2023-04-28T10:39:16;11.20;99.90
26691;DHT22;14307;51.718;8.938;2023-04-28T10:41:46;11.10;99.90
26691;DHT22;14307;51.718;8.938;2023-04-28T10:47:00;11.10;99.90
26691;DHT22;14307;51.718;8.938;2023-04-28T10:55:32;11.00;99.90
26691;DHT22;14307;51.718;8.938;2023-04-28T11:00:42;10.90;99.90
26691;DHT22;14307;51.718;8.938;2023-04-28T11:08:56;11.10;99.90
26691;DHT22;14307;51.718;8.938;2023-04-28T11:11:30;11.20;99.90
26691;DHT22;14307;51.718;8.938;2023-04-28T11:19:22;11.70;99.90
26691;DHT22;14307;51.718;8.938;2023-04-28T11:21:53;11.60;99.90
26691;DHT22;14307;51.718;8.938;2023-04-28T11:24:22;11.60;99.90
26691;DHT22;14307;51.718;8.938;2023-04-28T11:26:51;11.50;99.90
26691;DHT22;14307;51.718;8.938;2023-04-28T11:29:37;11.70;99.90
26691;DHT22;14307;51.718;8.938;2023-04-28T11:32:06;11.90;99.90
26691;DHT22;14307;51.718;8.938;2023-04-28T11:34:34;12.00;99.90
26691;DHT22;14307;51.718;8.938;2023-04-28T11:37:01;12.10;99.90
26691;DHT22;14307;51.718;8.938;2023-04-28T11:39:32;12.10;99.90
26691;DHT22;14307;51.718;8.938;2023-04-28T11:42:01;12.00;99.90
26691;DHT22;14307;51.718;8.938;2023-04-28T11:44:29;12.20;99.90
26691;DHT22;14307;51.718;8.938;2023-04-28T11:46:58;12.40;99.90
26691;DHT22;14307;51.718;8.938;2023-04-28T11:49:28;12.40;99.90
26691;DHT22;14307;51.718;8.938;2023-04-28T11:51:57;12.40;99.90
26691;DHT22;14307;51.718;8.938;2023-04-28T11:54:27;12.50;99.90
26691;DHT22;14307;51.718;8.938;2023-04-28T11:56:55;12.60;99.90
26691;DHT22;14307;51.718;8.938;2023-04-28T11:59:31;12.70;99.90
26691;DHT22;14307;51.718;8.938;2023-04-28T12:02:01;12.90;99.90
26691;DHT22;14307;51.718;8.938;2023-04-28T12:04:39;13.00;99.90
26691;DHT22;14307;51.718;8.938;2023-04-28T12:07:14;13.40;99.90
26691;DHT22;14307;51.718;8.938;2023-04-28T12:09:42;13.50;99.90
26691;DHT22;14307;51.718;8.938;2023-04-28T12:12:11;13.40;99.90
26691;DHT22;14307;51.718;8.938;2023-04-28T12:14:57;13.40;99.90
26691;DHT22;14307;51.718;8.938;2023-04-28T12:17:39;13.60;99.90
26691;DHT22;14307;51.718;8.938;2023-04-28T12:20:08;13.60;99.90
26691;DHT22;14307;51.718;8.938;2023-04-28T12:22:47;13.60;99.90
26691;DHT22;14307;51.718;8.938;2023-04-28T12:25:16;13.80;99.90
26691;DHT22;14307;51.718;8.938;2023-04-28T12:27:59;14.00;99.90
26691;DHT22;14307;51.718;8.938;2023-04-28T12:30:29;14.30;99.90
26691;DHT22;14307;51.718;8.938;2023-04-28T12:32:56;14.30;99.90
26691;DHT22;14307;51.718;8.938;2023-04-28T12:35:24;14.40;99.90
26691;DHT22;14307;51.718;8.938;2023-04-28T12:37:52;14.80;99.90
26691;DHT22;14307;51.718;8.938;2023-04-28T12:40:19;14.80;99.90
26691;DHT22;14307;51.718;8.938;2023-04-28T12:42:46;14.70;99.90
26691;DHT22;14307;51.718;8.938;2023-04-28T12:45:12;14.20;99.90
26691;DHT22;14307;51.718;8.938;2023-04-28T12:47:42;13.90;99.90
26691;DHT22;14307;51.718;8.938;2023-04-28T12:50:08;14.00;99.90
26691;DHT22;14307;51.718;8.938;2023-04-28T12:52:35;14.30;99.90
26691;DHT22;14307;51.718;8.938;2023-04-28T12:55:03;14.30;99.90
26691;DHT22;14307;51.718;8.938;2023-04-28T12:57:30;14.50;99.90
26691;DHT22;14307;51.718;8.938;2023-04-28T12:59:57;14.60;99.90
26691;DHT22;14307;51.718;8.938;2023-04-28T13:02:23;14.80;99.90
26691;DHT22;14307;51.718;8.938;2023-04-28T13:04:51;15.00;99.90
26691;DHT22;14307;51.718;8.938;2023-04-28T13:07:18;14.90;99.90
26691;DHT22;14307;51.718;8.938;2023-04-28T13:09:45;14.70;99.90
26691;DHT22;14307;51.718;8.938;2023-04-28T13:12:13;14.80;99.90
26691;DHT22;14307;51.718;8.938;2023-04-28T13:14:40;14.90;99.90
26691;DHT22;14307;51.718;8.938;2023-04-28T13:17:07;14.90;99.90
26691;DHT22;14307;51.718;8.938;2023-04-28T13:19:35;14.90;99.90
26691;DHT22;14307;51.718;8.938;2023-04-28T13:22:02;14.90;99.90
26691;DHT22;14307;51.718;8.938;2023-04-28T13:24:31;14.90;99.90
26691;DHT22;14307;51.718;8.938;2023-04-28T13:27:01;14.70;99.90
26691;DHT22;14307;51.718;8.938;2023-04-28T13:29:29;14.60;99.90
26691;DHT22;14307;51.718;8.938;2023-04-28T13:31:56;14.60;99.90
26691;DHT22;14307;51.718;8.938;2023-04-28T13:34:22;14.60;99.90
26691;DHT22;14307;51.718;8.938;2023-04-28T13:36:50;14.50;99.90
26691;DHT22;14307;51.718;8.938;2023-04-28T13:39:19;14.40;99.90
26691;DHT22;14307;51.718;8.938;2023-04-28T13:41:48;14.50;99.90
26691;DHT22;14307;51.718;8.938;2023-04-28T13:44:15;14.70;99.90
26691;DHT22;14307;51.718;8.938;2023-04-28T13:46:42;14.60;99.90
26691;DHT22;14307;51.718;8.938;2023-04-28T13:49:09;14.60;99.90
26691;DHT22;14307;51.718;8.938;2023-04-28T13:51:36;14.60;99.90
26691;DHT22;14307;51.718;8.938;2023-04-28T13:54:03;14.80;99.90
26691;DHT22;14307;51.718;8.938;2023-04-28T13:56:31;14.90;99.90
26691;DHT22;14307;51.718;8.938;2023-04-28T13:58:57;14.90;99.90
26691;DHT22;14307;51.718;8.938;2023-04-28T14:01:24;14.90;99.90
26691;DHT22;14307;51.718;8.938;2023-04-28T14:03:51;14.80;99.90
26691;DHT22;14307;51.718;8.938;2023-04-28T14:06:18;14.70;99.90
26691;DHT22;14307;51.718;8.938;2023-04-28T14:08:45;14.80;99.90
26691;DHT22;14307;51.718;8.938;2023-04-28T14:11:12;14.60;99.90
26691;DHT22;14307;51.718;8.938;2023-04-28T14:13:39;14.50;99.90
26691;DHT22;14307;51.718;8.938;2023-04-28T14:16:06;14.50;99.90
26691;DHT22;14307;51.718;8.938;2023-04-28T14:18:34;14.50;99.90
26691;DHT22;14307;51.718;8.938;2023-04-28T14:21:01;14.70;99.90
26691;DHT22;14307;51.718;8.938;2023-04-28T14:23:28;14.70;99.90
26691;DHT22;14307;51.718;8.938;2023-04-28T14:25:55;14.60;99.90
26691;DHT22;14307;51.718;8.938;2023-04-28T14:28:23;14.50;99.90
26691;DHT22;14307;51.718;8.938;2023-04-28T14:30:52;14.40;99.90
26691;DHT22;14307;51.718;8.938;2023-04-28T14:33:19;14.20;99.90
26691;DHT22;14307;51.718;8.938;2023-04-28T14:35:46;14.20;99.90
26691;DHT22;14307;51.718;8.938;2023-04-28T14:38:13;14.10;99.90
26691;DHT22;14307;51.718;8.938;2023-04-28T14:40:40;14.10;99.90
26691;DHT22;14307;51.718;8.938;2023-04-28T14:43:08;14.00;99.90
26691;DHT22;14307;51.718;8.938;2023-04-28T14:45:35;14.10;99.90
26691;DHT22;14307;51.718;8.938;2023-04-28T14:48:03;14.20;99.90
26691;DHT22;14307;51.718;8.938;2023-04-28T14:50:32;14.10;99.90
26691;DHT22;14307;51.718;8.938;2023-04-28T14:52:59;14.10;99.90
26691;DHT22;14307;51.718;8.938;2023-04-28T14:55:31;14.10;99.90
26691;DHT22;14307;51.718;8.938;2023-04-28T14:57:58;14.00;99.90
26691;DHT22;14307;51.718;8.938;2023-04-28T15:00:25;13.90;99.90
26691;DHT22;14307;51.718;8.938;2023-04-28T15:02:51;13.80;99.90
26691;DHT22;14307;51.718;8.938;2023-04-28T15:05:18;13.80;99.90
26691;DHT22;14307;51.718;8.938;2023-04-28T15:07:46;13.70;99.90
26691;DHT22;14307;51.718;8.938;2023-04-28T15:10:12;13.60;99.90
26691;DHT22;14307;51.718;8.938;2023-04-28T15:12:39;13.60;99.90
26691;DHT22;14307;51.718;8.938;2023-04-28T15:15:07;13.60;99.90
26691;DHT22;14307;51.718;8.938;2023-04-28T15:17:34;13.50;99.90
26691;DHT22;14307;51.718;8.938;2023-04-28T15:20:01;13.30;99.90
26691;DHT22;14307;51.718;8.938;2023-04-28T15:22:27;13.20;99.90
26691;DHT22;14307;51.718;8.938;2023-04-28T15:24:54;13.20;99.90
26691;DHT22;14307;51.718;8.938;2023-04-28T15:27:21;13.20;99.90
26691;DHT22;14307;51.718;8.938;2023-04-28T15:29:51;13.20;99.90
26691;DHT22;14307;51.718;8.938;2023-04-28T15:32:18;13.20;99.90
26691;DHT22;14307;51.718;8.938;2023-04-28T15:34:44;13.40;99.90
26691;DHT22;14307;51.718;8.938;2023-04-28T15:40:05;13.60;99.90
26691;DHT22;14307;51.718;8.938;2023-04-28T15:42:32;13.60;99.90
26691;DHT22;14307;51.718;8.938;2023-04-28T15:45:00;13.70;99.90
26691;DHT22;14307;51.718;8.938;2023-04-28T15:47:28;13.80;99.90
26691;DHT22;14307;51.718;8.938;2023-04-28T15:49:56;13.80;99.90
26691;DHT22;14307;51.718;8.938;2023-04-28T15:52:24;13.90;99.90
26691;DHT22;14307;51.718;8.938;2023-04-28T15:54:54;13.90;99.90
26691;DHT22;14307;51.718;8.938;2023-04-28T15:57:21;13.90;99.90
26691;DHT22;14307;51.718;8.938;2023-04-28T15:59:48;14.00;99.90
26691;DHT22;14307;51.718;8.938;2023-04-28T16:02:17;14.20;99.90
26691;DHT22;14307;51.718;8.938;2023-04-28T16:04:44;14.30;99.90
26691;DHT22;14307;51.718;8.938;2023-04-28T16:07:12;14.30;99.90
26691;DHT22;14307;51.718;8.938;2023-04-28T16:09:39;14.30;99.90
26691;DHT22;14307;51.718;8.938;2023-04-28T16:12:05;14.20;99.90
26691;DHT22;14307;51.718;8.938;2023-04-28T16:14:33;14.20;99.90
26691;DHT22;14307;51.718;8.938;2023-04-28T16:17:00;14.30;99.90
26691;DHT22;14307;51.718;8.938;2023-04-28T16:19:28;14.30;99.90